sensor_id;sensor_type;location;lat;lon;timestamp;P1;durP1;ratioP1;P2;durP2;ratioP2
75823;SDS011;64457;51.976;9.834;2023-02-01T00:00:40;22.03;;;3.57;;
75823;SDS011;64457;51.976;9.834;2023-02-01T00:03:08;20.23;;;3.43;;
75823;SDS011;64457;51.976;9.834;2023-02-01T00:05:38;16.53;;;4.00;;
75823;SDS011;64457;51.976;9.834;2023-02-01T00:08:05;10.20;;;2.07;;
75823;SDS011;64457;51.976;9.834;2023-02-01T00:10:33;23.30;;;4.00;;
75823;SDS011;64457;51.976;9.834;2023-02-01T00:13:00;21.00;;;4.23;;
75823;SDS011;64457;51.976;9.834;2023-02-01T00:15:29;16.03;;;3.60;;
75823;SDS011;64457;51.976;9.834;2023-02-01T00:17:58;20.77;;;3.80;;
75823;SDS011;64457;51.976;9.834;2023-02-01T00:20:25;19.07;;;2.67;;
75823;SDS011;64457;51.976;9.834;2023-02-01T00:22:53;14.77;;;4.33;;
75823;SDS011;64457;51.976;9.834;2023-02-01T00:25:21;17.63;;;3.40;;
75823;SDS011;64457;51.976;9.834;2023-02-01T00:27:48;12.23;;;3.47;;
75823;SDS011;64457;51.976;9.834;2023-02-01T00:30:16;22.50;;;3.97;;
75823;SDS011;64457;51.976;9.834;2023-02-01T00:32:46;19.27;;;3.67;;
75823;SDS011;64457;51.976;9.834;2023-02-01T00:35:14;22.90;;;3.50;;
75823;SDS011;64457;51.976;9.834;2023-02-01T00:37:41;19.83;;;3.70;;
75823;SDS011;64457;51.976;9.834;2023-02-01T00:40:09;17.30;;;3.40;;
75823;SDS011;64457;51.976;9.834;2023-02-01T00:42:38;11.40;;;3.10;;
75823;SDS011;64457;51.976;9.834;2023-02-01T00:45:06;20.23;;;4.53;;
75823;SDS011;64457;51.976;9.834;2023-02-01T00:47:35;10.83;;;4.07;;
75823;SDS011;64457;51.976;9.834;2023-02-01T00:50:04;21.03;;;3.60;;
75823;SDS011;64457;51.976;9.834;2023-02-01T00:52:32;15.10;;;3.87;;
75823;SDS011;64457;51.976;9.834;2023-02-01T00:55:00;14.63;;;3.40;;
75823;SDS011;64457;51.976;9.834;2023-02-01T00:57:27;16.73;;;3.30;;
75823;SDS011;64457;51.976;9.834;2023-02-01T00:59:55;18.10;;;4.23;;
75823;SDS011;64457;51.976;9.834;2023-02-01T01:02:23;18.43;;;3.57;;
75823;SDS011;64457;51.976;9.834;2023-02-01T01:04:53;12.53;;;2.57;;
75823;SDS011;64457;51.976;9.834;2023-02-01T01:07:21;9.20;;;2.40;;
75823;SDS011;64457;51.976;9.834;2023-02-01T01:09:49;25.03;;;3.80;;
75823;SDS011;64457;51.976;9.834;2023-02-01T01:12:17;8.20;;;2.40;;
75823;SDS011;64457;51.976;9.834;2023-02-01T01:14:45;14.83;;;2.77;;
75823;SDS011;64457;51.976;9.834;2023-02-01T01:17:12;21.93;;;5.50;;
75823;SDS011;64457;51.976;9.834;2023-02-01T01:19:40;22.93;;;3.33;;
75823;SDS011;64457;51.976;9.834;2023-02-01T01:22:07;14.13;;;2.87;;
75823;SDS011;64457;51.976;9.834;2023-02-01T01:24:37;14.27;;;2.70;;
75823;SDS011;64457;51.976;9.834;2023-02-01T01:27:04;12.60;;;2.50;;
75823;SDS011;64457;51.976;9.834;2023-02-01T01:29:31;23.07;;;3.00;;
75823;SDS011;64457;51.976;9.834;2023-02-01T01:31:59;15.87;;;2.70;;
75823;SDS011;64457;51.976;9.834;2023-02-01T01:34:27;16.57;;;2.50;;
75823;SDS011;64457;51.976;9.834;2023-02-01T01:36:54;18.10;;;3.20;;
75823;SDS011;64457;51.976;9.834;2023-02-01T01:39:22;19.90;;;3.20;;
75823;SDS011;64457;51.976;9.834;2023-02-01T01:41:51;15.10;;;3.03;;
75823;SDS011;64457;51.976;9.834;2023-02-01T01:47:25;16.83;;;3.50;;
75823;SDS011;64457;51.976;9.834;2023-02-01T01:49:57;19.53;;;3.20;;
75823;SDS011;64457;51.976;9.834;2023-02-01T01:52:25;15.97;;;2.77;;
75823;SDS011;64457;51.976;9.834;2023-02-01T01:54:52;18.13;;;2.63;;
75823;SDS011;64457;51.976;9.834;2023-02-01T01:57:23;11.17;;;2.67;;
75823;SDS011;64457;51.976;9.834;2023-02-01T01:59:54;20.83;;;4.27;;
75823;SDS011;64457;51.976;9.834;2023-02-01T02:02:26;5.03;;;2.50;;
75823;SDS011;64457;51.976;9.834;2023-02-01T02:04:54;10.67;;;2.43;;
75823;SDS011;64457;51.976;9.834;2023-02-01T02:07:23;9.93;;;2.70;;
75823;SDS011;64457;51.976;9.834;2023-02-01T02:09:55;15.70;;;3.07;;
75823;SDS011;64457;51.976;9.834;2023-02-01T02:12:25;17.73;;;4.60;;
75823;SDS011;64457;51.976;9.834;2023-02-01T02:14:52;26.10;;;3.00;;
75823;SDS011;64457;51.976;9.834;2023-02-01T02:17:24;15.00;;;3.00;;
75823;SDS011;64457;51.976;9.834;2023-02-01T02:20:11;12.43;;;3.30;;
75823;SDS011;64457;51.976;9.834;2023-02-01T02:23:18;15.50;;;4.00;;
75823;SDS011;64457;51.976;9.834;2023-02-01T02:26:22;12.57;;;3.37;;
75823;SDS011;64457;51.976;9.834;2023-02-01T02:32:28;12.53;;;3.10;;
75823;SDS011;64457;51.976;9.834;2023-02-01T02:35:40;16.20;;;3.30;;
75823;SDS011;64457;51.976;9.834;2023-02-01T02:38:15;15.07;;;4.27;;
75823;SDS011;64457;51.976;9.834;2023-02-01T02:41:03;11.70;;;2.40;;
75823;SDS011;64457;51.976;9.834;2023-02-01T02:43:37;9.60;;;2.67;;
75823;SDS011;64457;51.976;9.834;2023-02-01T02:46:32;15.57;;;3.50;;
75823;SDS011;64457;51.976;9.834;2023-02-01T02:49:23;11.37;;;2.67;;
75823;SDS011;64457;51.976;9.834;2023-02-01T02:51:59;14.90;;;3.60;;
75823;SDS011;64457;51.976;9.834;2023-02-01T02:54:50;25.90;;;4.30;;
75823;SDS011;64457;51.976;9.834;2023-02-01T02:57:22;21.20;;;4.00;;
75823;SDS011;64457;51.976;9.834;2023-02-01T03:00:14;10.30;;;3.23;;
75823;SDS011;64457;51.976;9.834;2023-02-01T03:03:02;15.50;;;4.17;;
75823;SDS011;64457;51.976;9.834;2023-02-01T03:05:48;10.03;;;3.50;;
75823;SDS011;64457;51.976;9.834;2023-02-01T03:08:19;15.83;;;3.00;;
75823;SDS011;64457;51.976;9.834;2023-02-01T03:10:48;14.37;;;3.20;;
75823;SDS011;64457;51.976;9.834;2023-02-01T03:13:26;11.70;;;3.40;;
75823;SDS011;64457;51.976;9.834;2023-02-01T03:16:02;20.03;;;4.10;;
75823;SDS011;64457;51.976;9.834;2023-02-01T03:18:42;20.90;;;3.87;;
75823;SDS011;64457;51.976;9.834;2023-02-01T03:21:17;15.10;;;3.77;;
75823;SDS011;64457;51.976;9.834;2023-02-01T03:23:52;17.17;;;3.07;;
75823;SDS011;64457;51.976;9.834;2023-02-01T03:26:22;19.00;;;3.10;;
75823;SDS011;64457;51.976;9.834;2023-02-01T03:28:54;17.07;;;3.20;;
75823;SDS011;64457;51.976;9.834;2023-02-01T03:31:25;17.60;;;3.60;;
75823;SDS011;64457;51.976;9.834;2023-02-01T03:33:55;18.10;;;3.70;;
75823;SDS011;64457;51.976;9.834;2023-02-01T03:36:24;10.57;;;2.50;;
75823;SDS011;64457;51.976;9.834;2023-02-01T03:39:00;22.07;;;3.87;;
75823;SDS011;64457;51.976;9.834;2023-02-01T03:41:34;13.37;;;3.17;;
75823;SDS011;64457;51.976;9.834;2023-02-01T03:44:09;13.57;;;2.97;;
75823;SDS011;64457;51.976;9.834;2023-02-01T03:46:42;6.23;;;2.50;;
75823;SDS011;64457;51.976;9.834;2023-02-01T03:49:18;27.07;;;4.80;;
75823;SDS011;64457;51.976;9.834;2023-02-01T03:51:52;5.50;;;2.80;;
75823;SDS011;64457;51.976;9.834;2023-02-01T03:54:23;15.33;;;3.30;;
75823;SDS011;64457;51.976;9.834;2023-02-01T03:56:52;11.67;;;2.93;;
75823;SDS011;64457;51.976;9.834;2023-02-01T03:59:23;13.13;;;3.87;;
75823;SDS011;64457;51.976;9.834;2023-02-01T04:01:51;22.03;;;4.07;;
75823;SDS011;64457;51.976;9.834;2023-02-01T04:04:18;19.33;;;4.27;;
75823;SDS011;64457;51.976;9.834;2023-02-01T04:06:46;18.53;;;4.50;;
75823;SDS011;64457;51.976;9.834;2023-02-01T04:09:14;23.53;;;4.43;;
75823;SDS011;64457;51.976;9.834;2023-02-01T04:11:43;22.13;;;4.90;;
75823;SDS011;64457;51.976;9.834;2023-02-01T04:14:10;20.00;;;4.43;;
75823;SDS011;64457;51.976;9.834;2023-02-01T04:16:38;16.00;;;4.80;;
75823;SDS011;64457;51.976;9.834;2023-02-01T04:19:05;17.40;;;5.00;;
75823;SDS011;64457;51.976;9.834;2023-02-01T04:21:33;17.30;;;4.30;;
75823;SDS011;64457;51.976;9.834;2023-02-01T04:24:00;20.87;;;5.83;;
75823;SDS011;64457;51.976;9.834;2023-02-01T04:26:28;19.33;;;4.60;;
75823;SDS011;64457;51.976;9.834;2023-02-01T04:28:57;19.37;;;5.03;;
75823;SDS011;64457;51.976;9.834;2023-02-01T04:31:24;17.03;;;3.50;;
75823;SDS011;64457;51.976;9.834;2023-02-01T04:33:52;20.13;;;5.60;;
75823;SDS011;64457;51.976;9.834;2023-02-01T04:36:22;24.47;;;4.63;;
75823;SDS011;64457;51.976;9.834;2023-02-01T04:38:50;18.23;;;4.40;;
75823;SDS011;64457;51.976;9.834;2023-02-01T04:41:18;15.13;;;4.60;;
75823;SDS011;64457;51.976;9.834;2023-02-01T04:43:48;19.43;;;4.27;;
75823;SDS011;64457;51.976;9.834;2023-02-01T04:46:18;8.93;;;3.33;;
75823;SDS011;64457;51.976;9.834;2023-02-01T04:48:46;13.80;;;3.70;;
75823;SDS011;64457;51.976;9.834;2023-02-01T04:51:13;16.40;;;4.30;;
75823;SDS011;64457;51.976;9.834;2023-02-01T04:53:43;23.60;;;4.90;;
75823;SDS011;64457;51.976;9.834;2023-02-01T04:56:10;16.77;;;4.10;;
75823;SDS011;64457;51.976;9.834;2023-02-01T04:58:38;17.03;;;3.60;;
75823;SDS011;64457;51.976;9.834;2023-02-01T05:01:06;15.97;;;4.23;;
75823;SDS011;64457;51.976;9.834;2023-02-01T05:03:35;8.27;;;2.90;;
75823;SDS011;64457;51.976;9.834;2023-02-01T05:06:03;19.90;;;3.67;;
75823;SDS011;64457;51.976;9.834;2023-02-01T05:08:31;10.70;;;3.70;;
75823;SDS011;64457;51.976;9.834;2023-02-01T05:10:59;15.17;;;3.70;;
75823;SDS011;64457;51.976;9.834;2023-02-01T05:13:28;14.40;;;3.83;;
75823;SDS011;64457;51.976;9.834;2023-02-01T05:16:13;13.60;;;3.40;;
75823;SDS011;64457;51.976;9.834;2023-02-01T05:18:42;20.47;;;4.33;;
75823;SDS011;64457;51.976;9.834;2023-02-01T05:21:10;15.90;;;3.40;;
75823;SDS011;64457;51.976;9.834;2023-02-01T05:23:37;11.40;;;2.40;;
75823;SDS011;64457;51.976;9.834;2023-02-01T05:26:19;10.40;;;2.80;;
75823;SDS011;64457;51.976;9.834;2023-02-01T05:28:46;13.10;;;3.00;;
75823;SDS011;64457;51.976;9.834;2023-02-01T05:31:14;13.60;;;2.97;;
75823;SDS011;64457;51.976;9.834;2023-02-01T05:33:43;26.47;;;3.70;;
75823;SDS011;64457;51.976;9.834;2023-02-01T05:36:10;10.60;;;3.07;;
75823;SDS011;64457;51.976;9.834;2023-02-01T05:38:37;11.87;;;3.10;;
75823;SDS011;64457;51.976;9.834;2023-02-01T05:41:05;20.17;;;3.73;;
75823;SDS011;64457;51.976;9.834;2023-02-01T05:43:33;15.53;;;3.70;;
75823;SDS011;64457;51.976;9.834;2023-02-01T05:46:00;16.70;;;3.80;;
75823;SDS011;64457;51.976;9.834;2023-02-01T05:48:28;20.43;;;3.97;;
75823;SDS011;64457;51.976;9.834;2023-02-01T05:50:57;22.07;;;3.73;;
75823;SDS011;64457;51.976;9.834;2023-02-01T05:53:24;13.70;;;3.70;;
75823;SDS011;64457;51.976;9.834;2023-02-01T05:55:52;14.47;;;3.83;;
75823;SDS011;64457;51.976;9.834;2023-02-01T05:58:19;15.07;;;3.00;;
75823;SDS011;64457;51.976;9.834;2023-02-01T06:00:47;13.23;;;3.27;;
75823;SDS011;64457;51.976;9.834;2023-02-01T06:03:15;13.43;;;2.77;;
75823;SDS011;64457;51.976;9.834;2023-02-01T06:05:43;6.93;;;2.60;;
75823;SDS011;64457;51.976;9.834;2023-02-01T06:08:12;15.63;;;3.80;;
75823;SDS011;64457;51.976;9.834;2023-02-01T06:10:40;7.77;;;2.70;;
75823;SDS011;64457;51.976;9.834;2023-02-01T06:13:08;9.67;;;3.23;;
75823;SDS011;64457;51.976;9.834;2023-02-01T06:15:35;10.10;;;2.70;;
75823;SDS011;64457;51.976;9.834;2023-02-01T06:18:03;8.30;;;2.50;;
75823;SDS011;64457;51.976;9.834;2023-02-01T06:20:31;8.97;;;2.53;;
75823;SDS011;64457;51.976;9.834;2023-02-01T06:22:59;13.67;;;2.87;;
75823;SDS011;64457;51.976;9.834;2023-02-01T06:25:27;5.20;;;2.50;;
75823;SDS011;64457;51.976;9.834;2023-02-01T06:27:55;5.07;;;1.87;;
75823;SDS011;64457;51.976;9.834;2023-02-01T06:30:26;9.87;;;2.87;;
75823;SDS011;64457;51.976;9.834;2023-02-01T06:32:55;17.60;;;3.30;;
75823;SDS011;64457;51.976;9.834;2023-02-01T06:35:23;6.73;;;2.60;;
75823;SDS011;64457;51.976;9.834;2023-02-01T06:37:51;10.23;;;2.97;;
75823;SDS011;64457;51.976;9.834;2023-02-01T06:40:18;8.73;;;2.47;;
75823;SDS011;64457;51.976;9.834;2023-02-01T06:42:49;9.17;;;2.93;;
75823;SDS011;64457;51.976;9.834;2023-02-01T06:45:16;16.33;;;3.30;;
75823;SDS011;64457;51.976;9.834;2023-02-01T06:47:44;8.20;;;2.93;;
75823;SDS011;64457;51.976;9.834;2023-02-01T06:50:11;3.33;;;1.63;;
75823;SDS011;64457;51.976;9.834;2023-02-01T06:52:39;6.20;;;3.00;;
75823;SDS011;64457;51.976;9.834;2023-02-01T06:55:07;13.07;;;3.33;;
75823;SDS011;64457;51.976;9.834;2023-02-01T06:57:38;8.47;;;2.80;;
75823;SDS011;64457;51.976;9.834;2023-02-01T07:00:08;9.63;;;3.37;;
75823;SDS011;64457;51.976;9.834;2023-02-01T07:02:37;6.83;;;2.43;;
75823;SDS011;64457;51.976;9.834;2023-02-01T07:05:05;14.00;;;4.07;;
75823;SDS011;64457;51.976;9.834;2023-02-01T07:07:33;13.43;;;3.57;;
75823;SDS011;64457;51.976;9.834;2023-02-01T07:10:00;14.73;;;3.70;;
75823;SDS011;64457;51.976;9.834;2023-02-01T07:12:27;15.00;;;4.37;;
75823;SDS011;64457;51.976;9.834;2023-02-01T07:14:56;19.40;;;4.37;;
75823;SDS011;64457;51.976;9.834;2023-02-01T07:17:26;31.80;;;4.40;;
75823;SDS011;64457;51.976;9.834;2023-02-01T07:19:54;9.93;;;2.90;;
75823;SDS011;64457;51.976;9.834;2023-02-01T07:22:21;21.83;;;3.47;;
75823;SDS011;64457;51.976;9.834;2023-02-01T07:24:49;9.37;;;3.03;;
75823;SDS011;64457;51.976;9.834;2023-02-01T07:27:17;9.70;;;2.50;;
75823;SDS011;64457;51.976;9.834;2023-02-01T07:29:45;14.53;;;3.83;;
75823;SDS011;64457;51.976;9.834;2023-02-01T07:32:12;10.10;;;3.17;;
75823;SDS011;64457;51.976;9.834;2023-02-01T07:34:44;15.37;;;4.23;;
75823;SDS011;64457;51.976;9.834;2023-02-01T07:37:12;10.27;;;3.30;;
75823;SDS011;64457;51.976;9.834;2023-02-01T07:39:39;18.63;;;4.33;;
75823;SDS011;64457;51.976;9.834;2023-02-01T07:42:07;12.67;;;4.43;;
75823;SDS011;64457;51.976;9.834;2023-02-01T07:44:35;13.37;;;3.73;;
75823;SDS011;64457;51.976;9.834;2023-02-01T07:47:02;10.10;;;3.30;;
75823;SDS011;64457;51.976;9.834;2023-02-01T07:49:30;14.90;;;3.30;;
75823;SDS011;64457;51.976;9.834;2023-02-01T07:51:59;17.37;;;3.93;;
75823;SDS011;64457;51.976;9.834;2023-02-01T07:54:26;17.27;;;3.83;;
75823;SDS011;64457;51.976;9.834;2023-02-01T07:56:54;9.33;;;2.97;;
75823;SDS011;64457;51.976;9.834;2023-02-01T07:59:21;11.67;;;3.90;;
75823;SDS011;64457;51.976;9.834;2023-02-01T08:01:49;14.60;;;4.37;;
75823;SDS011;64457;51.976;9.834;2023-02-01T08:04:15;27.73;;;3.43;;
75823;SDS011;64457;51.976;9.834;2023-02-01T08:06:42;15.13;;;2.73;;
75823;SDS011;64457;51.976;9.834;2023-02-01T08:09:11;14.23;;;3.40;;
75823;SDS011;64457;51.976;9.834;2023-02-01T08:11:40;13.50;;;3.50;;
75823;SDS011;64457;51.976;9.834;2023-02-01T08:14:07;12.00;;;3.20;;
75823;SDS011;64457;51.976;9.834;2023-02-01T08:16:34;11.40;;;3.60;;
75823;SDS011;64457;51.976;9.834;2023-02-01T08:19:04;23.17;;;4.00;;
75823;SDS011;64457;51.976;9.834;2023-02-01T08:21:31;15.73;;;3.60;;
75823;SDS011;64457;51.976;9.834;2023-02-01T08:24:05;12.97;;;2.60;;
75823;SDS011;64457;51.976;9.834;2023-02-01T08:26:36;20.30;;;3.90;;
75823;SDS011;64457;51.976;9.834;2023-02-01T08:29:04;11.50;;;3.40;;
75823;SDS011;64457;51.976;9.834;2023-02-01T08:31:34;10.43;;;3.30;;
75823;SDS011;64457;51.976;9.834;2023-02-01T08:34:02;19.57;;;3.63;;
75823;SDS011;64457;51.976;9.834;2023-02-01T08:36:30;12.60;;;3.60;;
75823;SDS011;64457;51.976;9.834;2023-02-01T08:38:58;18.33;;;3.43;;
75823;SDS011;64457;51.976;9.834;2023-02-01T08:41:27;18.70;;;3.70;;
75823;SDS011;64457;51.976;9.834;2023-02-01T08:43:58;15.20;;;2.87;;
75823;SDS011;64457;51.976;9.834;2023-02-01T08:46:25;12.37;;;3.00;;
75823;SDS011;64457;51.976;9.834;2023-02-01T08:48:54;12.73;;;3.37;;
75823;SDS011;64457;51.976;9.834;2023-02-01T08:51:23;11.70;;;3.17;;
75823;SDS011;64457;51.976;9.834;2023-02-01T08:53:52;19.63;;;3.47;;
75823;SDS011;64457;51.976;9.834;2023-02-01T08:56:19;15.30;;;3.80;;
75823;SDS011;64457;51.976;9.834;2023-02-01T08:58:47;12.43;;;2.80;;
75823;SDS011;64457;51.976;9.834;2023-02-01T09:01:16;8.23;;;2.90;;
75823;SDS011;64457;51.976;9.834;2023-02-01T09:03:44;11.60;;;2.90;;
75823;SDS011;64457;51.976;9.834;2023-02-01T09:06:13;15.73;;;3.43;;
75823;SDS011;64457;51.976;9.834;2023-02-01T09:08:43;12.60;;;3.40;;
75823;SDS011;64457;51.976;9.834;2023-02-01T09:11:11;16.47;;;3.50;;
75823;SDS011;64457;51.976;9.834;2023-02-01T09:13:41;8.17;;;2.20;;
75823;SDS011;64457;51.976;9.834;2023-02-01T09:16:08;13.37;;;3.10;;
75823;SDS011;64457;51.976;9.834;2023-02-01T09:18:38;12.07;;;3.47;;
75823;SDS011;64457;51.976;9.834;2023-02-01T09:21:05;18.60;;;2.87;;
75823;SDS011;64457;51.976;9.834;2023-02-01T09:23:33;12.20;;;3.30;;
75823;SDS011;64457;51.976;9.834;2023-02-01T09:26:02;14.47;;;2.70;;
75823;SDS011;64457;51.976;9.834;2023-02-01T09:28:31;16.80;;;3.03;;
75823;SDS011;64457;51.976;9.834;2023-02-01T09:30:58;15.17;;;3.00;;
75823;SDS011;64457;51.976;9.834;2023-02-01T09:33:27;11.47;;;2.80;;
75823;SDS011;64457;51.976;9.834;2023-02-01T09:35:57;11.13;;;2.40;;
75823;SDS011;64457;51.976;9.834;2023-02-01T09:38:26;9.50;;;2.70;;
75823;SDS011;64457;51.976;9.834;2023-02-01T09:40:54;12.33;;;2.90;;
75823;SDS011;64457;51.976;9.834;2023-02-01T09:43:29;18.60;;;4.30;;
75823;SDS011;64457;51.976;9.834;2023-02-01T09:46:13;16.47;;;3.60;;
75823;SDS011;64457;51.976;9.834;2023-02-01T09:48:47;12.33;;;3.37;;
75823;SDS011;64457;51.976;9.834;2023-02-01T09:51:29;18.63;;;3.40;;
75823;SDS011;64457;51.976;9.834;2023-02-01T09:54:02;14.73;;;3.47;;
75823;SDS011;64457;51.976;9.834;2023-02-01T09:56:35;17.83;;;3.43;;
75823;SDS011;64457;51.976;9.834;2023-02-01T09:59:10;13.47;;;3.50;;
75823;SDS011;64457;51.976;9.834;2023-02-01T10:01:53;13.90;;;3.00;;
75823;SDS011;64457;51.976;9.834;2023-02-01T10:04:20;12.50;;;2.70;;
75823;SDS011;64457;51.976;9.834;2023-02-01T10:07:02;7.47;;;2.30;;
75823;SDS011;64457;51.976;9.834;2023-02-01T10:09:42;15.70;;;2.60;;
75823;SDS011;64457;51.976;9.834;2023-02-01T10:12:28;10.67;;;2.70;;
75823;SDS011;64457;51.976;9.834;2023-02-01T10:15:30;9.70;;;3.03;;
75823;SDS011;64457;51.976;9.834;2023-02-01T10:18:15;22.97;;;3.17;;
75823;SDS011;64457;51.976;9.834;2023-02-01T10:21:02;10.57;;;2.47;;
75823;SDS011;64457;51.976;9.834;2023-02-01T10:26:50;16.47;;;3.43;;
75823;SDS011;64457;51.976;9.834;2023-02-01T10:29:25;17.97;;;2.87;;
75823;SDS011;64457;51.976;9.834;2023-02-01T10:31:59;13.13;;;3.10;;
75823;SDS011;64457;51.976;9.834;2023-02-01T10:34:30;16.33;;;3.07;;
75823;SDS011;64457;51.976;9.834;2023-02-01T10:37:00;13.90;;;3.23;;
75823;SDS011;64457;51.976;9.834;2023-02-01T10:39:47;15.33;;;2.00;;
75823;SDS011;64457;51.976;9.834;2023-02-01T10:42:16;10.93;;;2.50;;
75823;SDS011;64457;51.976;9.834;2023-02-01T10:44:46;16.63;;;3.27;;
75823;SDS011;64457;51.976;9.834;2023-02-01T10:47:15;5.20;;;1.57;;
75823;SDS011;64457;51.976;9.834;2023-02-01T10:49:43;10.93;;;2.87;;
75823;SDS011;64457;51.976;9.834;2023-02-01T10:52:23;13.53;;;2.80;;
75823;SDS011;64457;51.976;9.834;2023-02-01T10:58:00;8.77;;;2.20;;
75823;SDS011;64457;51.976;9.834;2023-02-01T11:00:34;8.00;;;2.40;;
75823;SDS011;64457;51.976;9.834;2023-02-01T11:03:21;11.47;;;2.60;;
75823;SDS011;64457;51.976;9.834;2023-02-01T11:05:59;13.33;;;3.10;;
75823;SDS011;64457;51.976;9.834;2023-02-01T11:08:29;13.17;;;2.83;;
75823;SDS011;64457;51.976;9.834;2023-02-01T11:11:00;14.00;;;3.17;;
75823;SDS011;64457;51.976;9.834;2023-02-01T11:13:31;8.60;;;2.57;;
75823;SDS011;64457;51.976;9.834;2023-02-01T11:16:04;9.30;;;2.40;;
75823;SDS011;64457;51.976;9.834;2023-02-01T11:18:35;12.50;;;4.07;;
75823;SDS011;64457;51.976;9.834;2023-02-01T11:21:05;7.47;;;1.83;;
75823;SDS011;64457;51.976;9.834;2023-02-01T11:23:38;5.27;;;1.97;;
75823;SDS011;64457;51.976;9.834;2023-02-01T11:26:12;7.17;;;2.40;;
75823;SDS011;64457;51.976;9.834;2023-02-01T11:28:44;9.57;;;2.60;;
75823;SDS011;64457;51.976;9.834;2023-02-01T11:31:19;13.20;;;2.40;;
75823;SDS011;64457;51.976;9.834;2023-02-01T11:33:49;8.30;;;3.00;;
75823;SDS011;64457;51.976;9.834;2023-02-01T11:36:21;13.50;;;1.90;;
75823;SDS011;64457;51.976;9.834;2023-02-01T11:38:53;11.77;;;2.47;;
75823;SDS011;64457;51.976;9.834;2023-02-01T11:41:42;12.33;;;2.53;;
75823;SDS011;64457;51.976;9.834;2023-02-01T11:44:19;14.20;;;2.40;;
75823;SDS011;64457;51.976;9.834;2023-02-01T11:46:49;8.33;;;2.67;;
75823;SDS011;64457;51.976;9.834;2023-02-01T11:49:20;12.60;;;2.90;;
75823;SDS011;64457;51.976;9.834;2023-02-01T11:51:53;13.53;;;2.67;;
75823;SDS011;64457;51.976;9.834;2023-02-01T11:54:40;13.00;;;3.03;;
75823;SDS011;64457;51.976;9.834;2023-02-01T11:57:31;9.87;;;2.53;;
75823;SDS011;64457;51.976;9.834;2023-02-01T12:00:18;12.33;;;2.77;;
75823;SDS011;64457;51.976;9.834;2023-02-01T12:03:25;13.73;;;3.27;;
75823;SDS011;64457;51.976;9.834;2023-02-01T12:06:17;14.07;;;3.43;;
75823;SDS011;64457;51.976;9.834;2023-02-01T12:11:54;16.60;;;3.00;;
75823;SDS011;64457;51.976;9.834;2023-02-01T12:14:36;8.60;;;2.27;;
75823;SDS011;64457;51.976;9.834;2023-02-01T12:17:22;13.40;;;3.20;;
75823;SDS011;64457;51.976;9.834;2023-02-01T12:20:23;16.97;;;3.43;;
75823;SDS011;64457;51.976;9.834;2023-02-01T12:26:05;8.83;;;3.00;;
75823;SDS011;64457;51.976;9.834;2023-02-01T12:28:58;15.10;;;4.17;;
75823;SDS011;64457;51.976;9.834;2023-02-01T12:31:46;12.97;;;3.53;;
75823;SDS011;64457;51.976;9.834;2023-02-01T12:34:45;10.23;;;3.40;;
75823;SDS011;64457;51.976;9.834;2023-02-01T12:37:48;28.60;;;4.30;;
75823;SDS011;64457;51.976;9.834;2023-02-01T12:40:33;14.17;;;4.10;;
75823;SDS011;64457;51.976;9.834;2023-02-01T12:43:14;12.90;;;4.00;;
75823;SDS011;64457;51.976;9.834;2023-02-01T12:45:48;12.17;;;4.30;;
75823;SDS011;64457;51.976;9.834;2023-02-01T12:48:26;10.73;;;4.00;;
75823;SDS011;64457;51.976;9.834;2023-02-01T12:50:59;11.17;;;4.20;;
75823;SDS011;64457;51.976;9.834;2023-02-01T12:53:36;19.90;;;4.93;;
75823;SDS011;64457;51.976;9.834;2023-02-01T12:56:13;13.63;;;4.90;;
75823;SDS011;64457;51.976;9.834;2023-02-01T12:58:58;11.17;;;4.53;;
75823;SDS011;64457;51.976;9.834;2023-02-01T13:01:30;16.17;;;4.67;;
75823;SDS011;64457;51.976;9.834;2023-02-01T13:04:07;11.90;;;4.70;;
75823;SDS011;64457;51.976;9.834;2023-02-01T13:06:44;12.03;;;5.20;;
75823;SDS011;64457;51.976;9.834;2023-02-01T13:09:19;11.80;;;5.33;;
75823;SDS011;64457;51.976;9.834;2023-02-01T13:11:53;14.57;;;4.63;;
75823;SDS011;64457;51.976;9.834;2023-02-01T13:14:27;16.23;;;4.97;;
75823;SDS011;64457;51.976;9.834;2023-02-01T13:17:01;10.67;;;5.20;;
75823;SDS011;64457;51.976;9.834;2023-02-01T13:19:36;11.60;;;4.10;;
75823;SDS011;64457;51.976;9.834;2023-02-01T13:22:13;10.47;;;4.43;;
75823;SDS011;64457;51.976;9.834;2023-02-01T13:24:47;11.80;;;4.80;;
75823;SDS011;64457;51.976;9.834;2023-02-01T13:27:18;8.67;;;5.20;;
75823;SDS011;64457;51.976;9.834;2023-02-01T13:29:48;13.00;;;4.93;;
75823;SDS011;64457;51.976;9.834;2023-02-01T13:32:38;11.10;;;4.87;;
75823;SDS011;64457;51.976;9.834;2023-02-01T13:35:51;10.20;;;5.10;;
75823;SDS011;64457;51.976;9.834;2023-02-01T13:38:51;7.40;;;4.03;;
75823;SDS011;64457;51.976;9.834;2023-02-01T13:42:01;10.90;;;4.37;;
75823;SDS011;64457;51.976;9.834;2023-02-01T13:44:32;11.63;;;4.27;;
75823;SDS011;64457;51.976;9.834;2023-02-01T13:47:11;5.20;;;3.70;;
75823;SDS011;64457;51.976;9.834;2023-02-01T13:49:48;8.47;;;3.60;;
75823;SDS011;64457;51.976;9.834;2023-02-01T13:55:23;7.10;;;3.43;;
75823;SDS011;64457;51.976;9.834;2023-02-01T13:58:02;11.63;;;4.70;;
75823;SDS011;64457;51.976;9.834;2023-02-01T14:00:40;13.23;;;4.30;;
75823;SDS011;64457;51.976;9.834;2023-02-01T14:03:10;5.83;;;2.80;;
75823;SDS011;64457;51.976;9.834;2023-02-01T14:05:55;9.00;;;4.07;;
75823;SDS011;64457;51.976;9.834;2023-02-01T14:08:45;9.50;;;4.30;;
75823;SDS011;64457;51.976;9.834;2023-02-01T14:11:44;8.37;;;4.10;;
75823;SDS011;64457;51.976;9.834;2023-02-01T14:23:11;12.00;;;4.30;;
75823;SDS011;64457;51.976;9.834;2023-02-01T14:25:44;9.83;;;4.10;;
75823;SDS011;64457;51.976;9.834;2023-02-01T14:28:22;10.07;;;3.80;;
75823;SDS011;64457;51.976;9.834;2023-02-01T14:30:53;9.97;;;3.10;;
75823;SDS011;64457;51.976;9.834;2023-02-01T14:33:24;5.13;;;2.53;;
75823;SDS011;64457;51.976;9.834;2023-02-01T14:35:58;5.53;;;2.50;;
75823;SDS011;64457;51.976;9.834;2023-02-01T14:38:35;7.37;;;2.53;;
75823;SDS011;64457;51.976;9.834;2023-02-01T14:41:13;2.57;;;0.80;;
75823;SDS011;64457;51.976;9.834;2023-02-01T14:50:04;2.17;;;0.73;;
75823;SDS011;64457;51.976;9.834;2023-02-01T14:52:50;3.77;;;1.37;;
75823;SDS011;64457;51.976;9.834;2023-02-01T14:55:43;2.10;;;0.90;;
75823;SDS011;64457;51.976;9.834;2023-02-01T14:58:15;2.30;;;0.80;;
75823;SDS011;64457;51.976;9.834;2023-02-01T15:00:56;2.53;;;0.90;;
75823;SDS011;64457;51.976;9.834;2023-02-01T15:03:34;5.17;;;1.07;;
75823;SDS011;64457;51.976;9.834;2023-02-01T15:06:19;2.50;;;0.90;;
75823;SDS011;64457;51.976;9.834;2023-02-01T15:08:55;9.40;;;3.90;;
75823;SDS011;64457;51.976;9.834;2023-02-01T15:11:25;2.70;;;0.97;;
75823;SDS011;64457;51.976;9.834;2023-02-01T15:13:54;2.70;;;1.00;;
75823;SDS011;64457;51.976;9.834;2023-02-01T15:16:23;3.00;;;1.20;;
75823;SDS011;64457;51.976;9.834;2023-02-01T15:19:06;2.80;;;1.00;;
75823;SDS011;64457;51.976;9.834;2023-02-01T15:21:45;3.00;;;0.90;;
75823;SDS011;64457;51.976;9.834;2023-02-01T15:24:17;6.70;;;1.30;;
75823;SDS011;64457;51.976;9.834;2023-02-01T15:26:48;5.17;;;1.30;;
75823;SDS011;64457;51.976;9.834;2023-02-01T15:29:18;2.40;;;1.00;;
75823;SDS011;64457;51.976;9.834;2023-02-01T15:31:48;2.03;;;0.90;;
75823;SDS011;64457;51.976;9.834;2023-02-01T15:34:18;2.43;;;0.70;;
75823;SDS011;64457;51.976;9.834;2023-02-01T15:36:47;3.17;;;1.20;;
75823;SDS011;64457;51.976;9.834;2023-02-01T15:39:17;3.67;;;1.10;;
75823;SDS011;64457;51.976;9.834;2023-02-01T15:41:49;2.27;;;0.70;;
75823;SDS011;64457;51.976;9.834;2023-02-01T15:44:33;2.50;;;1.10;;
75823;SDS011;64457;51.976;9.834;2023-02-01T15:47:07;6.03;;;1.30;;
75823;SDS011;64457;51.976;9.834;2023-02-01T15:49:42;3.13;;;1.20;;